Time;durP1;ratioP1;P1;durP2;ratioP2;P2;SDS_P1;SDS_P2;PMS_P1;PMS_P2;Temp;Humidity;BMP_temperature;BMP_pressure;BME280_temperature;BME280_humidity;BME280_pressure;Samples;Min_cycle;Max_cycle;Signal;HPM_P1;HPM_P2
2023/04/08 00:02:06;;;;;;;22.17;20.17;;;7.10;99.90;;;;;;4899718;29;20460;-73
2023/04/08 00:04:35;;;;;;;23.87;21.70;;;7.10;99.90;;;;;;4899649;29;20480;-73
2023/04/08 00:07:03;;;;;;;22.80;20.60;;;7.10;99.90;;;;;;4898532;29;20453;-73
2023/04/08 00:09:32;;;;;;;24.17;22.10;;;7.10;99.90;;;;;;4898312;29;20980;-72
2023/04/08 00:12:01;;;;;;;24.30;22.00;;;7.10;99.90;;;;;;4899562;29;20476;-73
2023/04/08 00:14:29;;;;;;;24.07;22.07;;;7.10;99.90;;;;;;4898245;29;20455;-73
2023/04/08 00:16:57;;;;;;;24.20;22.10;;;7.10;99.90;;;;;;4898110;29;20453;-73
2023/04/08 00:19:25;;;;;;;25.43;23.13;;;7.10;99.90;;;;;;4898059;29;20462;-73
2023/04/08 00:21:53;;;;;;;24.20;22.00;;;7.10;99.90;;;;;;4898059;29;20476;-73
2023/04/08 00:24:22;;;;;;;23.57;21.57;;;7.10;99.90;;;;;;4899587;29;20575;-74
2023/04/08 00:26:51;;;;;;;25.53;23.33;;;7.10;99.90;;;;;;4899337;29;20438;-74
2023/04/08 00:29:19;;;;;;;23.57;21.40;;;7.10;99.90;;;;;;4898617;29;20468;-73
2023/04/08 00:31:48;;;;;;;24.50;22.30;;;7.10;99.90;;;;;;4897561;29;20480;-73
2023/04/08 00:34:16;;;;;;;25.20;23.00;;;7.20;99.90;;;;;;4898383;29;20448;-73
2023/04/08 00:36:45;;;;;;;24.07;21.90;;;7.10;99.90;;;;;;4897710;29;20850;-73
2023/04/08 00:39:14;;;;;;;23.00;20.90;;;7.20;99.90;;;;;;4898906;29;20957;-74
2023/04/08 00:41:42;;;;;;;22.63;20.60;;;7.20;99.90;;;;;;4897401;29;21016;-73
2023/04/08 00:44:12;;;;;;;22.23;20.23;;;7.20;99.90;;;;;;4897448;29;20527;-74
2023/04/08 00:46:40;;;;;;;22.53;20.63;;;7.10;99.90;;;;;;4897520;29;20459;-74
2023/04/08 00:49:09;;;;;;;23.00;21.00;;;7.20;99.90;;;;;;4897511;29;20928;-73
2023/04/08 00:51:37;;;;;;;22.90;20.80;;;7.20;99.90;;;;;;4897346;29;20473;-73
2023/04/08 00:54:06;;;;;;;22.83;20.83;;;7.20;99.90;;;;;;4897398;29;20830;-74
2023/04/08 00:56:36;;;;;;;22.83;20.90;;;7.20;99.90;;;;;;4897405;29;20485;-73
2023/04/08 00:59:05;;;;;;;24.30;22.00;;;7.20;99.90;;;;;;4897472;29;20457;-73
2023/04/08 01:01:43;;;;;;;25.73;23.03;;;7.20;99.90;;;;;;4898872;29;20500;-74
2023/04/08 01:04:21;;;;;;;22.93;21.03;;;7.20;99.90;;;;;;4897255;29;20453;-74
2023/04/08 01:06:56;;;;;;;23.03;20.90;;;7.20;99.90;;;;;;4897284;29;20500;-73
2023/04/08 01:09:28;;;;;;;22.90;20.70;;;7.20;99.90;;;;;;4897403;29;20546;-73
2023/04/08 01:11:58;;;;;;;22.23;20.20;;;7.20;99.90;;;;;;4897208;29;20512;-73
2023/04/08 01:14:28;;;;;;;23.70;21.50;;;7.20;99.90;;;;;;4897170;29;20464;-73
2023/04/08 01:17:01;;;;;;;24.03;21.73;;;7.20;99.90;;;;;;4897268;29;20523;-73
2023/04/08 01:19:34;;;;;;;25.70;23.30;;;7.20;99.90;;;;;;4897060;29;20500;-73
2023/04/08 01:22:10;;;;;;;26.00;23.60;;;7.20;99.90;;;;;;4896934;29;20496;-73
2023/04/08 01:24:43;;;;;;;25.53;23.03;;;7.20;99.90;;;;;;4898705;29;20818;-73
2023/04/08 01:27:15;;;;;;;25.67;23.27;;;7.20;99.90;;;;;;4896942;29;20453;-73
2023/04/08 01:29:44;;;;;;;24.43;22.17;;;7.20;99.90;;;;;;4898146;29;20461;-73
2023/04/08 01:32:13;;;;;;;22.43;20.43;;;7.20;99.90;;;;;;4896733;29;20817;-73
2023/04/08 01:34:43;;;;;;;24.87;22.77;;;7.10;99.90;;;;;;4896724;29;20450;-73
2023/04/08 01:37:12;;;;;;;25.17;22.87;;;7.20;99.90;;;;;;4896702;29;20453;-73
2023/04/08 01:39:41;;;;;;;23.13;20.97;;;7.20;99.90;;;;;;4896600;29;20463;-74
2023/04/08 01:42:15;;;;;;;24.40;22.27;;;7.20;99.90;;;;;;4896860;29;20919;-73
2023/04/08 01:44:45;;;;;;;23.90;21.80;;;7.20;99.90;;;;;;4896302;29;20546;-73
2023/04/08 01:47:14;;;;;;;26.80;24.23;;;7.20;99.90;;;;;;4896504;29;20450;-73
2023/04/08 01:49:43;;;;;;;25.67;23.27;;;7.20;99.90;;;;;;4896621;29;20507;-73
2023/04/08 01:52:12;;;;;;;27.27;24.67;;;7.10;99.90;;;;;;4896607;29;20480;-73
2023/04/08 01:54:40;;;;;;;27.00;24.60;;;7.20;99.90;;;;;;4896613;29;20463;-73
2023/04/08 01:57:16;;;;;;;26.00;23.67;;;7.20;99.90;;;;;;4896685;29;20459;-73
2023/04/08 01:59:48;;;;;;;27.40;24.80;;;7.20;99.90;;;;;;4896748;29;20475;-73
2023/04/08 02:02:18;;;;;;;29.63;26.70;;;7.20;99.90;;;;;;4896575;29;20827;-73
2023/04/08 02:04:47;;;;;;;29.23;26.50;;;7.10;99.90;;;;;;4896765;29;20519;-73
2023/04/08 02:07:15;;;;;;;27.37;24.83;;;7.20;99.90;;;;;;4896601;29;20456;-73
2023/04/08 02:09:44;;;;;;;32.80;29.77;;;7.20;99.90;;;;;;4896408;29;20985;-73
2023/04/08 02:12:14;;;;;;;30.07;27.37;;;7.20;99.90;;;;;;4896306;29;20472;-73
2023/04/08 02:14:42;;;;;;;30.23;27.47;;;7.20;99.90;;;;;;4897157;29;20813;-73
2023/04/08 02:17:14;;;;;;;29.83;27.07;;;7.10;99.90;;;;;;4896539;29;20460;-73
2023/04/08 02:19:48;;;;;;;32.30;29.30;;;7.10;99.90;;;;;;4896419;29;20462;-74
2023/04/08 02:22:23;;;;;;;31.77;28.90;;;7.10;99.90;;;;;;4896327;29;20482;-73
2023/04/08 02:24:53;;;;;;;31.10;28.10;;;7.20;99.90;;;;;;4896750;29;20453;-73
2023/04/08 02:27:24;;;;;;;30.53;27.80;;;7.10;99.90;;;;;;4896303;29;20448;-74
2023/04/08 02:29:55;;;;;;;31.50;28.57;;;7.10;99.90;;;;;;4896281;29;20445;-74
2023/04/08 02:32:25;;;;;;;32.80;29.80;;;7.10;99.90;;;;;;4896371;29;20479;-73
2023/04/08 02:34:54;;;;;;;31.67;28.73;;;7.10;99.90;;;;;;4896325;29;20454;-73
2023/04/08 02:37:23;;;;;;;30.67;27.87;;;7.10;99.90;;;;;;4896176;29;20453;-73
2023/04/08 02:39:51;;;;;;;30.57;27.73;;;7.10;99.90;;;;;;4896193;29;20548;-73
2023/04/08 02:42:20;;;;;;;29.27;26.57;;;7.10;99.90;;;;;;4896112;29;20475;-74
2023/04/08 02:44:49;;;;;;;28.23;25.60;;;7.10;99.90;;;;;;4896147;29;20465;-73
2023/04/08 02:47:17;;;;;;;29.43;26.53;;;7.10;99.90;;;;;;4896078;29;20477;-73
2023/04/08 02:49:46;;;;;;;29.60;26.80;;;7.10;99.90;;;;;;4896761;29;20452;-73
2023/04/08 02:52:14;;;;;;;29.07;26.03;;;7.10;99.90;;;;;;4896151;29;20483;-73
2023/04/08 02:54:42;;;;;;;25.87;23.33;;;7.10;99.90;;;;;;4896202;29;20457;-73
2023/04/08 02:57:10;;;;;;;25.53;23.03;;;7.10;99.90;;;;;;4898440;29;20460;-73
2023/04/08 02:59:39;;;;;;;24.70;22.27;;;7.10;99.90;;;;;;4901074;29;20437;-73
2023/04/08 03:02:09;;;;;;;23.83;21.40;;;7.10;99.90;;;;;;4899485;29;20507;-74
2023/04/08 03:04:37;;;;;;;23.00;20.80;;;7.10;99.90;;;;;;4900983;29;20447;-73
2023/04/08 03:07:05;;;;;;;22.83;20.60;;;7.10;99.90;;;;;;4899323;29;20468;-73
2023/04/08 03:09:35;;;;;;;24.60;22.30;;;7.10;99.90;;;;;;4901115;29;20443;-73
2023/04/08 03:12:04;;;;;;;23.07;20.70;;;7.10;99.90;;;;;;4900636;29;20468;-74
2023/04/08 03:14:32;;;;;;;24.30;21.80;;;7.00;99.90;;;;;;4899336;29;20458;-74
2023/04/08 03:17:00;;;;;;;25.90;23.30;;;7.00;99.90;;;;;;4900275;29;20448;-73
2023/04/08 03:19:30;;;;;;;24.10;21.77;;;7.00;99.90;;;;;;4900862;29;20457;-73
2023/04/08 03:21:58;;;;;;;25.40;22.77;;;7.00;99.90;;;;;;4900623;29;20459;-74
2023/04/08 03:24:26;;;;;;;29.03;24.00;;;7.00;99.90;;;;;;4900528;29;20451;-73
2023/04/08 03:26:54;;;;;;;24.97;22.40;;;7.00;99.90;;;;;;4900406;29;20477;-73
2023/04/08 03:29:22;;;;;;;26.30;23.60;;;7.00;99.90;;;;;;4900565;29;20497;-74
2023/04/08 03:31:50;;;;;;;25.80;23.10;;;7.00;99.90;;;;;;4898799;29;20483;-73
2023/04/08 03:34:19;;;;;;;25.90;23.40;;;7.00;99.90;;;;;;4900712;29;20856;-73
2023/04/08 03:36:48;;;;;;;29.47;26.30;;;7.00;99.90;;;;;;4898833;29;20985;-74
2023/04/08 03:39:16;;;;;;;28.17;25.30;;;7.00;99.90;;;;;;4898842;29;20460;-74
2023/04/08 03:41:44;;;;;;;28.63;25.50;;;7.00;99.90;;;;;;4898723;29;20567;-73
2023/04/08 03:44:13;;;;;;;28.47;25.10;;;7.00;99.90;;;;;;4899896;29;20468;-73
2023/04/08 03:46:41;;;;;;;27.70;24.80;;;7.00;99.90;;;;;;4898643;29;20477;-74
2023/04/08 03:49:09;;;;;;;27.30;24.50;;;7.00;99.90;;;;;;4898616;29;20455;-74
2023/04/08 03:51:37;;;;;;;31.27;28.00;;;7.00;99.90;;;;;;4899895;29;20876;-73
2023/04/08 03:54:06;;;;;;;33.43;27.60;;;7.00;99.90;;;;;;4899813;29;20463;-73
2023/04/08 03:56:34;;;;;;;29.67;26.57;;;7.00;99.90;;;;;;4899880;29;20850;-74
2023/04/08 03:59:02;;;;;;;28.30;25.30;;;7.00;99.90;;;;;;4898433;29;20459;-74
2023/04/08 04:01:31;;;;;;;32.43;27.83;;;6.90;99.90;;;;;;4899657;29;20465;-74
2023/04/08 04:03:59;;;;;;;28.73;25.70;;;6.90;99.90;;;;;;4900193;29;20926;-74
2023/04/08 04:06:27;;;;;;;29.50;26.30;;;6.90;99.90;;;;;;4899385;29;20484;-74
2023/04/08 04:08:55;;;;;;;29.87;26.67;;;6.90;99.90;;;;;;4899601;29;20813;-73
2023/04/08 04:11:26;;;;;;;29.30;26.40;;;6.90;99.90;;;;;;4899485;29;20919;-73
2023/04/08 04:13:54;;;;;;;28.43;25.33;;;6.90;99.90;;;;;;4898251;29;20545;-73
2023/04/08 04:16:22;;;;;;;30.60;25.93;;;6.90;99.90;;;;;;4898253;29;20454;-74
2023/04/08 04:18:51;;;;;;;29.67;26.57;;;6.90;99.90;;;;;;4898106;29;20457;-73
2023/04/08 04:21:20;;;;;;;30.90;26.27;;;6.90;99.90;;;;;;4898086;29;20474;-73
2023/04/08 04:23:48;;;;;;;29.47;26.47;;;6.90;99.90;;;;;;4899282;29;20511;-74
2023/04/08 04:26:16;;;;;;;29.57;26.23;;;6.90;99.90;;;;;;4897955;29;20524;-73
2023/04/08 04:28:46;;;;;;;27.90;24.90;;;6.90;99.90;;;;;;4898017;29;20452;-74
2023/04/08 04:31:20;;;;;;;30.30;27.10;;;6.90;99.90;;;;;;4897964;29;20477;-73
2023/04/08 04:33:49;;;;;;;28.30;25.33;;;6.90;99.90;;;;;;4899376;29;20918;-73
2023/04/08 04:36:18;;;;;;;27.00;24.10;;;6.90;99.90;;;;;;4897832;29;20452;-73
2023/04/08 04:38:46;;;;;;;26.10;23.30;;;6.90;99.90;;;;;;4897810;29;20449;-73
2023/04/08 04:41:17;;;;;;;27.03;24.30;;;6.90;99.90;;;;;;4899003;29;20606;-73
2023/04/08 04:43:46;;;;;;;27.70;24.20;;;6.90;99.90;;;;;;4897661;29;20531;-74
2023/04/08 04:46:14;;;;;;;28.33;25.33;;;6.90;99.90;;;;;;4897550;29;20444;-73
2023/04/08 04:48:43;;;;;;;30.63;26.63;;;6.90;99.90;;;;;;4899130;29;20945;-73
2023/04/08 04:51:11;;;;;;;29.20;25.93;;;6.90;99.90;;;;;;4898758;29;20524;-73
2023/04/08 04:53:39;;;;;;;28.40;25.17;;;6.90;99.90;;;;;;4898806;29;20449;-73
2023/04/08 04:56:07;;;;;;;28.57;25.77;;;6.90;99.90;;;;;;4898737;29;20491;-73
2023/04/08 04:58:35;;;;;;;30.27;26.90;;;6.90;99.90;;;;;;4898731;29;20463;-74
2023/04/08 05:01:05;;;;;;;29.33;26.10;;;6.90;99.90;;;;;;4897359;29;20515;-73
2023/04/08 05:03:33;;;;;;;29.70;26.40;;;6.90;99.90;;;;;;4898206;29;20848;-73
2023/04/08 05:06:01;;;;;;;32.17;28.53;;;6.90;99.90;;;;;;4897337;29;20452;-73
2023/04/08 05:08:29;;;;;;;30.10;26.97;;;6.90;99.90;;;;;;4897198;29;20543;-73
2023/04/08 05:11:00;;;;;;;29.07;25.93;;;6.90;99.90;;;;;;4897168;29;20453;-73
2023/04/08 05:13:29;;;;;;;29.30;24.50;;;6.90;99.90;;;;;;4897212;29;20455;-73
2023/04/08 05:15:57;;;;;;;28.10;25.03;;;6.90;99.90;;;;;;4898350;29;20445;-73
2023/04/08 05:18:26;;;;;;;31.63;28.27;;;6.90;99.90;;;;;;4898177;29;20451;-73
2023/04/08 05:20:54;;;;;;;29.23;26.33;;;7.00;99.90;;;;;;4897011;29;20461;-73
2023/04/08 05:23:22;;;;;;;27.37;24.57;;;7.00;99.90;;;;;;4898349;29;20805;-73
2023/04/08 05:25:50;;;;;;;28.87;25.77;;;7.00;99.90;;;;;;4896979;29;20464;-73
2023/04/08 05:28:18;;;;;;;31.43;26.87;;;7.00;99.90;;;;;;4896944;29;20828;-73
2023/04/08 05:30:49;;;;;;;29.53;26.33;;;7.00;99.90;;;;;;4898396;29;20952;-73
2023/04/08 05:33:17;;;;;;;28.60;25.60;;;7.00;99.90;;;;;;4898925;29;20435;-73
2023/04/08 05:35:46;;;;;;;27.80;24.97;;;7.00;99.90;;;;;;4898076;29;20441;-73
2023/04/08 05:38:15;;;;;;;29.20;26.10;;;7.10;99.90;;;;;;4898068;29;20452;-73
2023/04/08 05:40:43;;;;;;;27.40;24.47;;;7.10;99.90;;;;;;4896741;29;20457;-73
2023/04/08 05:43:11;;;;;;;30.10;26.90;;;7.10;99.90;;;;;;4898130;29;20548;-73
2023/04/08 05:45:39;;;;;;;31.80;27.80;;;7.10;99.90;;;;;;4896669;29;20460;-73
2023/04/08 05:48:07;;;;;;;30.83;26.83;;;7.10;99.90;;;;;;4898028;29;20567;-73
2023/04/08 05:50:36;;;;;;;30.30;26.27;;;7.10;99.90;;;;;;4897050;29;20498;-73
2023/04/08 05:53:05;;;;;;;31.83;27.30;;;7.10;99.90;;;;;;4896603;29;20481;-73
2023/04/08 05:55:33;;;;;;;29.90;26.20;;;7.10;99.90;;;;;;4897969;29;20445;-73
2023/04/08 05:58:03;;;;;;;29.87;26.60;;;7.20;99.90;;;;;;4896656;29;20511;-73
2023/04/08 06:00:32;;;;;;;33.40;27.27;;;7.20;99.90;;;;;;4897887;29;20443;-73
2023/04/08 06:03:00;;;;;;;31.53;27.30;;;7.20;99.90;;;;;;4896562;29;20476;-73
2023/04/08 06:05:28;;;;;;;34.57;26.83;;;7.20;99.90;;;;;;4897879;29;20528;-73
2023/04/08 06:07:56;;;;;;;30.63;25.27;;;7.20;99.90;;;;;;4898047;29;20806;-73
2023/04/08 06:10:26;;;;;;;28.43;25.40;;;7.30;99.90;;;;;;4896605;29;20461;-73
2023/04/08 06:12:54;;;;;;;27.20;24.27;;;7.30;99.90;;;;;;4897830;29;20469;-74
2023/04/08 06:15:22;;;;;;;29.03;25.87;;;7.30;99.90;;;;;;4897782;29;20449;-73
2023/04/08 06:17:50;;;;;;;29.53;25.77;;;7.30;99.90;;;;;;4897852;29;20449;-73
2023/04/08 06:20:19;;;;;;;30.47;27.20;;;7.30;99.90;;;;;;4896371;29;20453;-73
2023/04/08 06:22:47;;;;;;;30.33;27.13;;;7.40;99.90;;;;;;4897768;29;20995;-73
2023/04/08 06:25:15;;;;;;;28.63;25.57;;;7.40;99.90;;;;;;4898198;29;20450;-73
2023/04/08 06:27:45;;;;;;;27.13;24.33;;;7.40;99.90;;;;;;4898170;29;20477;-74
2023/04/08 06:30:13;;;;;;;27.50;24.57;;;7.50;99.90;;;;;;4896666;29;20467;-73
2023/04/08 06:32:41;;;;;;;25.00;22.40;;;7.50;99.90;;;;;;4899702;29;20858;-73
2023/04/08 06:35:09;;;;;;;24.87;22.27;;;7.50;99.90;;;;;;4900054;29;20796;-73
2023/04/08 06:37:38;;;;;;;24.27;21.77;;;7.50;99.90;;;;;;4900050;29;20445;-74
2023/04/08 06:40:07;;;;;;;25.57;22.93;;;7.50;99.90;;;;;;4901713;29;20441;-74
2023/04/08 06:42:37;;;;;;;25.73;23.03;;;7.50;99.90;;;;;;4900235;29;20853;-73
2023/04/08 06:45:19;;;;;;;23.63;21.13;;;7.60;99.90;;;;;;4900086;29;20469;-74
2023/04/08 06:47:47;;;;;;;26.33;23.63;;;7.60;99.90;;;;;;4900981;29;21003;-74
2023/04/08 06:50:16;;;;;;;25.27;22.60;;;7.60;99.90;;;;;;4900916;29;20449;-74
2023/04/08 06:52:44;;;;;;;25.03;22.37;;;7.60;99.90;;;;;;4901004;29;20476;-73
2023/04/08 06:55:12;;;;;;;24.40;21.90;;;7.60;99.90;;;;;;4899962;29;20452;-73
2023/04/08 06:57:40;;;;;;;26.80;23.47;;;7.60;99.90;;;;;;4901222;29;20460;-73
2023/04/08 07:00:09;;;;;;;26.13;23.43;;;7.60;99.90;;;;;;4901162;29;20517;-74
2023/04/08 07:02:39;;;;;;;29.03;26.13;;;7.60;99.90;;;;;;4899562;29;20480;-73
2023/04/08 07:05:08;;;;;;;26.93;24.07;;;7.60;99.90;;;;;;4899586;29;20452;-73
2023/04/08 07:07:36;;;;;;;27.03;24.33;;;7.60;99.90;;;;;;4900782;29;20480;-74
2023/04/08 07:10:05;;;;;;;26.50;23.80;;;7.60;99.90;;;;;;4900818;29;20517;-73
2023/04/08 07:12:36;;;;;;;26.83;24.10;;;7.60;99.90;;;;;;4899577;29;20856;-73
2023/04/08 07:15:06;;;;;;;26.40;23.90;;;7.60;99.90;;;;;;4899413;29;21024;-73
2023/04/08 07:17:34;;;;;;;28.87;25.87;;;7.60;99.90;;;;;;4900536;29;20515;-73
2023/04/08 07:20:04;;;;;;;27.87;25.07;;;7.70;99.90;;;;;;4900970;29;20441;-75
2023/04/08 07:22:32;;;;;;;28.03;25.13;;;7.70;99.90;;;;;;4899355;29;20483;-74
2023/04/08 07:25:01;;;;;;;27.73;24.93;;;7.70;99.90;;;;;;4899341;29;20464;-74
2023/04/08 07:27:29;;;;;;;26.40;23.53;;;7.70;99.90;;;;;;4899169;29;20456;-74
2023/04/08 07:29:58;;;;;;;27.23;24.47;;;7.70;99.90;;;;;;4900435;29;20937;-74
2023/04/08 07:32:26;;;;;;;24.40;22.00;;;7.70;99.90;;;;;;4899067;29;20844;-74
2023/04/08 07:34:54;;;;;;;25.63;23.00;;;7.70;99.90;;;;;;4899377;29;20501;-74
2023/04/08 07:37:24;;;;;;;23.77;21.30;;;7.80;99.90;;;;;;4900453;29;20516;-72
2023/04/08 07:39:52;;;;;;;23.70;21.30;;;7.80;99.90;;;;;;4900208;29;20445;-73
2023/04/08 07:42:20;;;;;;;22.87;20.50;;;7.80;99.90;;;;;;4898511;29;20488;-73
2023/04/08 07:44:48;;;;;;;25.10;22.67;;;7.80;99.90;;;;;;4900176;29;20461;-73
2023/04/08 07:47:17;;;;;;;24.83;22.23;;;7.80;99.90;;;;;;4899951;29;20448;-72
2023/04/08 07:49:47;;;;;;;24.97;22.30;;;7.90;99.90;;;;;;4899943;29;20996;-72
2023/04/08 07:52:15;;;;;;;23.13;20.63;;;7.90;99.90;;;;;;4898748;29;20477;-73
2023/04/08 07:54:44;;;;;;;23.57;21.23;;;7.90;99.90;;;;;;4898621;29;20496;-73
2023/04/08 07:57:12;;;;;;;25.10;22.50;;;7.90;99.90;;;;;;4899920;29;20444;-73
2023/04/08 07:59:41;;;;;;;23.43;21.13;;;7.90;99.90;;;;;;4899863;29;20966;-73
2023/04/08 08:02:09;;;;;;;24.77;22.40;;;8.00;99.90;;;;;;4899865;29;20465;-73
2023/04/08 08:04:37;;;;;;;24.50;22.10;;;8.00;99.90;;;;;;4899844;29;20536;-72
2023/04/08 08:07:06;;;;;;;23.50;21.20;;;8.10;99.90;;;;;;4900044;29;20445;-73
2023/04/08 08:09:34;;;;;;;24.60;22.10;;;8.10;99.90;;;;;;4899493;29;20557;-75
2023/04/08 08:12:04;;;;;;;25.23;22.63;;;8.10;99.90;;;;;;4899607;29;20465;-74
2023/04/08 08:14:32;;;;;;;23.50;21.30;;;8.20;99.90;;;;;;4898319;29;20461;-73
2023/04/08 08:17:00;;;;;;;24.80;22.40;;;8.20;99.90;;;;;;4899731;29;20449;-73
2023/04/08 08:19:28;;;;;;;24.40;22.03;;;8.20;99.90;;;;;;4898202;29;20453;-74
2023/04/08 08:21:57;;;;;;;26.17;23.53;;;8.20;99.90;;;;;;4899307;29;20465;-73
2023/04/08 08:24:26;;;;;;;24.27;21.77;;;8.30;99.90;;;;;;4898145;29;20453;-73
2023/04/08 08:26:54;;;;;;;23.37;21.07;;;8.30;99.90;;;;;;4900137;29;20787;-73
2023/04/08 08:29:23;;;;;;;24.30;22.00;;;8.30;99.90;;;;;;4898097;29;20614;-72
2023/04/08 08:31:51;;;;;;;22.97;20.80;;;8.30;99.90;;;;;;4898039;29;20475;-73
2023/04/08 08:34:20;;;;;;;24.43;22.23;;;8.40;99.90;;;;;;4899235;29;20446;-73
2023/04/08 08:36:48;;;;;;;24.87;22.27;;;8.40;99.90;;;;;;4899409;29;20967;-72
2023/04/08 08:39:16;;;;;;;24.80;22.30;;;8.40;99.90;;;;;;4897830;29;20887;-73
2023/04/08 08:41:44;;;;;;;24.53;22.00;;;8.10;99.90;;;;;;4898037;29;20465;-73
2023/04/08 08:44:13;;;;;;;27.07;24.37;;;8.50;99.90;;;;;;4897829;29;20468;-73
2023/04/08 08:46:44;;;;;;;26.33;23.63;;;8.50;99.90;;;;;;4897663;29;20453;-74
2023/04/08 08:49:12;;;;;;;24.93;22.53;;;8.50;99.90;;;;;;4897760;29;20461;-73
2023/04/08 08:51:41;;;;;;;26.10;23.50;;;8.60;99.90;;;;;;4898762;29;20819;-74
2023/04/08 08:54:10;;;;;;;26.67;24.00;;;8.60;99.90;;;;;;4898158;29;20445;-74
2023/04/08 08:56:38;;;;;;;24.70;22.40;;;8.60;99.90;;;;;;4897566;29;20540;-74
2023/04/08 08:59:06;;;;;;;23.60;21.37;;;8.70;99.90;;;;;;4897570;29;20521;-73
2023/04/08 09:01:37;;;;;;;22.83;20.43;;;8.70;99.90;;;;;;4882284;29;20474;-74
2023/04/08 09:04:12;;;;;;;23.00;20.67;;;8.80;99.90;;;;;;4898215;29;20441;-74
2023/04/08 09:06:41;;;;;;;22.80;20.80;;;8.80;99.90;;;;;;4898975;29;20429;-73
2023/04/08 09:09:12;;;;;;;24.70;22.40;;;8.90;99.90;;;;;;4897840;29;20524;-73
2023/04/08 09:11:41;;;;;;;23.80;21.47;;;9.00;99.90;;;;;;4897430;29;21025;-73
2023/04/08 09:14:20;;;;;;;23.60;21.40;;;9.00;99.90;;;;;;4898896;29;20455;-73
2023/04/08 09:16:48;;;;;;;24.90;22.70;;;9.10;99.90;;;;;;4899045;29;20429;-73
2023/04/08 09:19:18;;;;;;;27.80;25.20;;;9.10;99.90;;;;;;4898619;29;20442;-73
2023/04/08 09:22:04;;;;;;;28.37;25.80;;;9.10;99.90;;;;;;4897153;29;20465;-73
2023/04/08 09:24:32;;;;;;;27.93;25.07;;;9.10;99.90;;;;;;4898560;29;20430;-73
2023/04/08 09:27:00;;;;;;;26.17;23.67;;;9.20;99.90;;;;;;4897290;29;20960;-73
2023/04/08 09:29:29;;;;;;;28.63;25.97;;;9.20;99.90;;;;;;4898435;29;20845;-73
2023/04/08 09:32:02;;;;;;;33.63;30.47;;;9.30;99.90;;;;;;4897241;29;20477;-73
2023/04/08 09:34:33;;;;;;;32.77;29.53;;;9.30;99.90;;;;;;4898385;29;20441;-73
2023/04/08 09:37:04;;;;;;;33.00;29.90;;;9.30;99.90;;;;;;4898478;29;20425;-73
2023/04/08 09:39:32;;;;;;;32.50;29.30;;;9.40;99.90;;;;;;4897856;29;20477;-73
2023/04/08 09:42:02;;;;;;;31.63;28.63;;;9.40;99.90;;;;;;4898250;29;20457;-73
2023/04/08 09:44:33;;;;;;;32.87;29.77;;;9.30;99.90;;;;;;4897060;29;20465;-73
2023/04/08 09:47:07;;;;;;;35.90;32.33;;;9.30;99.90;;;;;;4896942;29;20441;-73
2023/04/08 09:49:43;;;;;;;36.47;32.77;;;9.30;99.90;;;;;;4898132;29;20464;-73
2023/04/08 09:52:15;;;;;;;34.40;31.30;;;9.30;99.90;;;;;;4898325;29;20555;-73
2023/04/08 09:54:52;;;;;;;31.50;28.60;;;9.30;99.90;;;;;;4898441;29;20429;-73
2023/04/08 09:57:28;;;;;;;29.10;26.40;;;9.40;99.90;;;;;;4896915;29;20438;-73
2023/04/08 10:00:10;;;;;;;26.17;23.60;;;9.40;99.90;;;;;;4896916;29;20476;-73
2023/04/08 10:02:49;;;;;;;25.10;22.77;;;9.50;99.90;;;;;;4898683;29;20504;-73
2023/04/08 10:05:21;;;;;;;26.37;23.97;;;9.50;99.90;;;;;;4898717;29;20447;-73
2023/04/08 10:07:50;;;;;;;29.90;26.90;;;9.60;99.90;;;;;;4900897;29;20463;-73
2023/04/08 10:10:18;;;;;;;36.33;32.77;;;9.60;99.90;;;;;;4900774;29;20476;-73
2023/04/08 10:12:47;;;;;;;35.20;31.90;;;9.60;99.90;;;;;;4902008;29;20465;-73
2023/04/08 10:15:29;;;;;;;31.40;28.30;;;9.60;99.90;;;;;;4902100;29;20453;-74
2023/04/08 10:18:36;;;;;;;28.33;25.60;;;9.70;99.90;;;;;;4902180;29;20923;-73
2023/04/08 10:21:35;;;;;;;29.50;26.73;;;9.70;99.90;;;;;;4902420;29;20455;-74
2023/04/08 10:24:07;;;;;;;35.20;31.70;;;9.70;99.90;;;;;;4904352;29;20481;-74
2023/04/08 10:26:41;;;;;;;38.63;34.93;;;9.70;99.90;;;;;;4903692;29;20445;-73
2023/04/08 10:29:34;;;;;;;31.50;28.60;;;9.80;99.90;;;;;;4903124;29;20540;-73
2023/04/08 10:32:02;;;;;;;37.97;34.37;;;9.80;99.90;;;;;;4904910;29;20468;-73
2023/04/08 10:34:30;;;;;;;28.47;25.63;;;9.80;99.90;;;;;;4904989;29;20445;-73
2023/04/08 10:37:00;;;;;;;32.10;29.00;;;9.80;99.90;;;;;;4907924;29;20453;-73
2023/04/08 10:39:32;;;;;;;34.10;30.70;;;9.80;99.90;;;;;;4909978;29;20461;-73
2023/04/08 10:42:03;;;;;;;32.30;29.20;;;9.70;99.90;;;;;;4908940;29;20948;-73
2023/04/08 10:44:31;;;;;;;32.20;29.10;;;9.70;99.90;;;;;;4905791;29;20479;-73
2023/04/08 10:47:00;;;;;;;30.10;27.20;;;9.70;99.90;;;;;;4908690;29;20453;-72
2023/04/08 10:49:33;;;;;;;30.70;27.70;;;9.70;99.90;;;;;;4907677;29;20473;-73
2023/04/08 10:52:07;;;;;;;29.90;27.10;;;9.70;99.90;;;;;;4907538;29;20479;-73
2023/04/08 10:54:37;;;;;;;31.20;28.10;;;9.70;99.90;;;;;;4905788;29;20441;-73
2023/04/08 10:57:06;;;;;;;30.70;27.60;;;9.80;99.90;;;;;;4908096;29;20528;-73
2023/04/08 10:59:35;;;;;;;30.63;27.70;;;9.80;99.90;;;;;;4906106;29;20557;-73
2023/04/08 11:02:03;;;;;;;31.50;28.40;;;9.80;99.90;;;;;;4903712;29;20503;-74
2023/04/08 11:04:32;;;;;;;31.20;28.10;;;9.90;99.90;;;;;;4901837;29;20881;-74
2023/04/08 11:07:05;;;;;;;31.40;28.33;;;9.90;99.90;;;;;;4900438;29;20453;-74
2023/04/08 11:09:35;;;;;;;38.87;34.77;;;9.90;99.90;;;;;;4901394;29;20438;-74
2023/04/08 11:12:04;;;;;;;48.03;40.47;;;9.90;99.90;;;;;;4899679;29;20465;-74
2023/04/08 11:14:32;;;;;;;33.93;30.23;;;10.00;99.90;;;;;;4899859;29;20457;-74
2023/04/08 11:17:01;;;;;;;33.57;30.23;;;10.00;99.90;;;;;;4900183;29;20469;-73
2023/04/08 11:19:29;;;;;;;31.97;28.70;;;10.00;99.90;;;;;;4899603;29;20460;-74
2023/04/08 11:21:58;;;;;;;31.10;27.77;;;10.00;99.90;;;;;;4899545;29;20469;-74
2023/04/08 11:24:27;;;;;;;30.27;27.17;;;10.00;99.90;;;;;;4899529;29;20824;-74
2023/04/08 11:26:56;;;;;;;29.77;26.83;;;10.00;99.90;;;;;;4900552;29;20445;-73
2023/04/08 11:29:24;;;;;;;28.83;25.93;;;10.00;99.90;;;;;;4900557;29;20441;-73
2023/04/08 11:31:53;;;;;;;28.63;25.50;;;10.00;99.90;;;;;;4899286;29;20493;-74
2023/04/08 11:34:23;;;;;;;29.10;26.10;;;10.00;99.90;;;;;;4915166;29;20445;-74
2023/04/08 11:36:52;;;;;;;28.80;25.73;;;10.00;99.90;;;;;;4899292;29;20442;-74
2023/04/08 11:39:23;;;;;;;28.80;25.90;;;9.90;99.90;;;;;;4900251;29;20781;-73
2023/04/08 11:41:52;;;;;;;28.20;25.40;;;9.90;99.90;;;;;;4899411;29;20477;-74
2023/04/08 11:44:30;;;;;;;30.20;27.00;;;9.90;99.90;;;;;;4900099;29;20540;-74
2023/04/08 11:47:00;;;;;;;30.23;27.20;;;10.00;99.90;;;;;;4898834;29;20448;-74
2023/04/08 11:49:44;;;;;;;29.73;26.63;;;9.90;99.90;;;;;;4900820;29;20434;-74
2023/04/08 11:52:12;;;;;;;29.03;26.10;;;10.00;99.90;;;;;;4898878;29;20493;-74
2023/04/08 11:54:42;;;;;;;29.27;26.13;;;10.00;99.90;;;;;;4900083;29;20945;-73
2023/04/08 11:57:10;;;;;;;28.97;26.03;;;10.10;99.90;;;;;;4898726;29;20465;-73
2023/04/08 11:59:40;;;;;;;29.07;26.13;;;10.10;99.90;;;;;;4900500;29;20477;-73
2023/04/08 12:02:09;;;;;;;30.60;27.50;;;10.20;99.90;;;;;;4898674;29;20481;-74
2023/04/08 12:04:38;;;;;;;31.97;28.87;;;10.30;99.90;;;;;;4900057;29;20516;-74
2023/04/08 12:07:06;;;;;;;30.83;27.73;;;10.30;99.90;;;;;;4900040;29;20441;-73
2023/04/08 12:09:34;;;;;;;29.10;25.43;;;10.30;99.90;;;;;;4898668;29;20953;-74
2023/04/08 12:12:03;;;;;;;29.00;26.10;;;10.30;99.90;;;;;;4898426;29;20849;-74
2023/04/08 12:14:31;;;;;;;29.07;26.17;;;10.40;99.90;;;;;;4899836;29;20493;-74
2023/04/08 12:17:00;;;;;;;29.53;26.40;;;10.40;99.90;;;;;;4899992;29;20449;-74
2023/04/08 12:19:29;;;;;;;28.80;25.73;;;10.50;99.90;;;;;;4899996;29;20953;-74
2023/04/08 12:21:59;;;;;;;31.17;27.97;;;10.50;99.90;;;;;;4899438;29;21003;-74
2023/04/08 12:24:27;;;;;;;35.70;31.90;;;10.50;99.90;;;;;;4899318;29;20941;-73
2023/04/08 12:26:55;;;;;;;35.60;31.80;;;10.50;99.90;;;;;;4899349;29;20445;-74
2023/04/08 12:29:23;;;;;;;32.70;29.20;;;10.60;99.90;;;;;;4899558;29;20444;-74
2023/04/08 12:31:52;;;;;;;31.27;27.87;;;10.60;99.90;;;;;;4899401;29;20845;-74
2023/04/08 12:34:22;;;;;;;32.27;28.97;;;10.60;99.90;;;;;;4899302;29;20526;-74
2023/04/08 12:36:50;;;;;;;32.53;29.17;;;10.60;99.90;;;;;;4898052;29;20456;-74
2023/04/08 12:39:18;;;;;;;33.00;29.60;;;10.60;99.90;;;;;;4897931;29;20451;-74
2023/04/08 12:41:47;;;;;;;37.17;33.20;;;10.60;99.90;;;;;;4897984;29;20508;-74
2023/04/08 12:44:15;;;;;;;36.43;32.73;;;10.60;99.90;;;;;;4897923;29;20581;-73
2023/04/08 12:46:43;;;;;;;33.03;29.57;;;10.60;99.90;;;;;;4897854;29;20833;-73
2023/04/08 12:49:12;;;;;;;32.67;29.37;;;10.70;99.90;;;;;;4899088;29;20473;-73